createdAt,value
2022-10-10T11:51:04.899Z,13392.00
2022-10-10T11:52:28.605Z,13756.00
2022-10-10T11:53:04.851Z,14056.00
2022-10-10T11:54:04.836Z,13984.00
2022-10-10T11:55:04.810Z,13760.00
2022-10-10T11:56:04.796Z,13616.00
2022-10-10T11:57:05.988Z,14068.00
2022-10-10T11:58:04.775Z,14052.00
2022-10-10T11:59:04.755Z,13648.00
2022-10-10T12:04:39.584Z,14572.00
2022-10-10T12:05:39.554Z,16480.00
2022-10-10T12:06:39.583Z,24480.00
2022-10-10T12:07:39.524Z,34944.00
2022-10-10T12:08:39.515Z,39744.00
2022-10-10T12:09:39.590Z,45280.00
2022-10-10T12:10:39.476Z,47840.00
2022-10-10T12:11:39.491Z,37312.00
2022-10-10T12:12:39.452Z,31584.00
2022-10-10T12:13:39.443Z,32800.00
2022-10-10T12:14:39.549Z,21728.00
2022-10-10T12:15:42.778Z,20960.00
2022-10-10T12:16:39.419Z,23936.00
2022-10-10T12:17:39.376Z,30304.00
2022-10-10T12:18:39.372Z,21760.00
2022-10-10T12:19:39.432Z,20224.00
2022-10-10T12:20:39.343Z,16672.00
2022-10-10T12:21:39.322Z,15732.00
2022-10-10T12:22:39.321Z,14560.00
2022-10-10T12:23:39.317Z,14764.00
2022-10-10T12:24:42.795Z,15212.00
2022-10-10T12:25:39.270Z,16768.00
2022-10-10T12:26:39.272Z,16704.00
2022-10-10T12:27:39.269Z,16000.00
2022-10-10T12:28:39.344Z,14748.00
2022-10-10T12:29:39.226Z,15092.00
2022-10-10T12:30:39.206Z,20064.00
2022-10-10T12:31:39.200Z,22336.00
2022-10-10T12:32:39.194Z,22016.00
2022-10-10T12:33:39.177Z,17952.00
2022-10-10T12:34:39.158Z,22208.00
2022-10-10T12:35:39.140Z,25760.00
2022-10-10T12:36:39.129Z,24256.00
2022-10-10T12:37:39.136Z,23712.00
2022-10-10T12:38:39.106Z,20320.00
2022-10-10T12:39:39.224Z,17184.00
2022-10-10T12:40:39.076Z,16992.00
2022-10-10T12:41:40.461Z,23456.00
2022-10-10T12:42:39.077Z,28288.00
2022-10-10T12:43:39.039Z,28864.00
2022-10-10T12:44:39.033Z,26048.00
2022-10-10T12:45:39.023Z,26752.00
2022-10-10T12:46:39.011Z,22464.00
2022-10-10T12:48:03.230Z,19456.00
2022-10-10T12:48:38.975Z,18688.00
2022-10-10T12:49:38.963Z,19488.00
2022-10-10T12:50:38.955Z,20576.00
2022-10-10T12:51:38.937Z,17920.00
2022-10-10T12:52:38.926Z,18752.00
2022-10-10T12:53:38.924Z,18272.00
2022-10-10T12:54:38.903Z,19296.00
2022-10-10T12:55:38.899Z,16672.00
2022-10-10T12:56:38.878Z,16096.00
2022-10-10T12:57:38.874Z,14232.00
2022-10-10T12:58:38.864Z,13972.00
2022-10-10T12:59:38.846Z,14008.00
2022-10-10T13:00:38.839Z,13620.00
2022-10-10T13:01:38.843Z,13548.00
2022-10-10T13:02:38.814Z,13528.00
2022-10-10T13:03:38.813Z,13916.00
2022-10-10T13:04:38.787Z,14780.00
2022-10-10T13:05:38.765Z,15016.00
2022-10-10T13:06:38.756Z,14408.00
2022-10-10T13:07:38.743Z,15316.00
2022-10-10T13:08:38.754Z,16224.00
2022-10-10T13:09:38.714Z,17472.00
2022-10-10T13:10:38.703Z,16608.00
2022-10-10T13:11:38.689Z,13644.00
2022-10-10T13:12:38.688Z,12712.00
2022-10-10T13:13:38.666Z,12480.00
2022-10-10T13:28:18.285Z,15904.00
2022-10-10T13:29:18.257Z,14512.00
2022-10-10T13:30:18.222Z,13732.00
2022-10-10T13:31:18.217Z,14568.00
2022-10-10T13:32:18.179Z,15236.00
2022-10-10T13:33:18.153Z,16448.00
2022-10-10T13:34:18.144Z,17760.00
2022-10-10T13:35:18.151Z,19328.00
2022-10-10T13:36:18.118Z,20896.00
2022-10-10T13:37:18.105Z,20448.00
2022-10-10T13:38:18.089Z,21024.00
2022-10-10T13:39:18.073Z,21472.00
2022-10-10T13:40:18.063Z,25184.00
2022-10-10T13:41:18.042Z,28768.00
2022-10-10T13:42:18.034Z,29088.00
2022-10-10T13:43:18.006Z,13292.00
2022-10-10T13:52:26.013Z,15552.00
2022-10-10T13:53:25.981Z,16096.00
2022-10-10T13:54:26.009Z,17024.00
2022-10-10T13:55:25.972Z,14460.00
2022-10-10T13:56:25.950Z,17312.00
2022-10-10T13:57:25.929Z,15160.00
2022-10-10T13:58:25.927Z,19552.00
2022-10-10T13:59:25.904Z,20992.00
2022-10-10T14:00:25.880Z,30176.00
2022-10-10T14:01:25.951Z,17760.00
2022-10-10T14:02:25.852Z,13048.00
2022-10-10T14:03:25.842Z,13156.00
2022-10-10T14:04:25.833Z,13868.00
2022-10-10T14:05:25.813Z,18720.00
2022-10-10T14:06:25.805Z,13964.00
2022-10-10T14:07:25.790Z,13352.00
2022-10-10T14:08:25.801Z,23392.00
2022-10-10T14:09:25.791Z,30656.00
2022-10-10T14:10:25.736Z,30144.00
2022-10-10T14:11:25.736Z,25088.00
2022-10-10T14:12:25.707Z,23872.00
2022-10-10T14:13:25.701Z,28160.00
2022-10-10T14:14:25.695Z,30848.00
2022-10-10T14:15:25.698Z,29952.00
2022-10-10T14:16:25.676Z,24672.00
2022-10-10T14:17:25.649Z,28160.00
2022-10-10T14:18:25.642Z,25536.00
2022-10-10T14:19:25.624Z,24160.00
2022-10-10T14:20:25.618Z,13016.00
2022-10-10T14:21:25.598Z,18016.00
2022-10-10T14:22:25.583Z,28736.00
2022-10-10T14:23:25.558Z,9256.00
2022-10-10T14:27:36.975Z,24832.00
2022-10-10T14:28:33.456Z,16608.00
